Time;durP1;ratioP1;P1;durP2;ratioP2;P2;SDS_P1;SDS_P2;PMS_P1;PMS_P2;Temp;Humidity;BMP_temperature;BMP_pressure;BME280_temperature;BME280_humidity;BME280_pressure;Samples;Min_cycle;Max_cycle;Signal;HPM_P1;HPM_P2
2023/12/24 00:00:13;;;;;;;5.50;1.50;;;;;;;13.48;31.18;98183.39;104663;1266;59651;-57
2023/12/24 00:02:40;;;;;;;3.20;0.90;;;;;;;13.47;31.30;98190.52;104912;1264;63066;-56
2023/12/24 00:05:08;;;;;;;5.50;2.10;;;;;;;13.44;31.32;98190.10;104586;1264;61525;-56
2023/12/24 00:07:36;;;;;;;6.20;1.50;;;;;;;13.42;31.33;98192.54;104863;1264;63809;-56
2023/12/24 00:10:04;;;;;;;4.90;1.50;;;;;;;13.41;31.41;98197.36;105193;1258;59656;-56
2023/12/24 00:12:32;;;;;;;6.60;2.20;;;;;;;13.40;31.32;98196.30;105463;1258;59636;-57
2023/12/24 00:15:00;;;;;;;3.90;1.40;;;;;;;13.39;31.41;98200.95;105114;1257;62865;-56
2023/12/24 00:17:27;;;;;;;3.90;1.30;;;;;;;13.39;31.51;98197.75;106343;1262;61396;-56
2023/12/24 00:19:55;;;;;;;8.60;1.20;;;;;;;13.38;31.55;98203.40;105095;1258;63703;-55
2023/12/24 00:22:23;;;;;;;4.80;1.10;;;;;;;13.36;31.46;98207.13;104934;1261;59794;-55
2023/12/24 00:24:50;;;;;;;7.50;2.40;;;;;;;13.35;31.50;98217.27;105147;1257;60046;-55
2023/12/24 00:27:18;;;;;;;2.80;0.90;;;;;;;13.45;31.46;98218.43;104894;1258;64275;-55
2023/12/24 00:29:46;;;;;;;3.80;1.10;;;;;;;13.53;31.41;98213.80;108851;1257;61333;-54
2023/12/24 00:32:14;;;;;;;5.00;1.50;;;;;;;13.55;31.41;98219.14;108968;1257;62740;-56
2023/12/24 00:34:42;;;;;;;5.00;1.40;;;;;;;13.60;31.29;98218.07;108861;1257;57552;-55
2023/12/24 00:37:10;;;;;;;5.40;1.30;;;;;;;13.66;31.20;98220.30;108808;1257;57708;-56
2023/12/24 00:39:39;;;;;;;7.10;1.30;;;;;;;13.70;31.19;98225.52;108271;1257;73541;-56
2023/12/24 00:42:06;;;;;;;4.30;1.60;;;;;;;13.65;31.19;98227.05;105127;1258;61362;-57
2023/12/24 00:44:34;;;;;;;4.40;1.80;;;;;;;13.60;31.22;98229.17;105040;1262;63741;-56
2023/12/24 00:47:02;;;;;;;5.80;1.70;;;;;;;13.59;31.27;98229.27;105370;1256;59696;-56
2023/12/24 00:49:29;;;;;;;5.30;1.40;;;;;;;13.56;31.37;98232.56;105131;1261;59624;-57
2023/12/24 00:51:57;;;;;;;4.00;1.30;;;;;;;13.53;31.36;98240.55;105160;1258;62982;-56
2023/12/24 00:54:25;;;;;;;4.20;1.10;;;;;;;13.49;31.49;98237.08;104926;1258;61390;-55
2023/12/24 00:56:53;;;;;;;6.20;1.40;;;;;;;13.47;31.52;98233.61;105681;1257;63901;-56
2023/12/24 00:59:21;;;;;;;7.20;2.50;;;;;;;13.45;31.57;98232.70;105572;1258;59674;-55
2023/12/24 01:01:49;;;;;;;4.70;1.40;;;;;;;13.43;31.60;98231.80;105596;1262;59611;-55
2023/12/24 01:04:17;;;;;;;6.80;1.60;;;;;;;13.47;31.74;98234.06;105042;1262;64089;-56
2023/12/24 01:06:44;;;;;;;4.70;1.20;;;;;;;13.57;31.56;98236.84;105070;1262;60479;-57
2023/12/24 01:09:12;;;;;;;4.20;1.60;;;;;;;13.65;31.41;98237.25;105341;1257;63679;-58
2023/12/24 01:11:41;;;;;;;3.70;1.50;;;;;;;13.70;31.44;98235.89;105003;1259;60534;-55
2023/12/24 01:14:10;;;;;;;5.50;1.10;;;;;;;13.70;31.36;98240.20;105310;1262;60316;-55
2023/12/24 01:16:41;;;;;;;3.30;1.50;;;;;;;13.67;31.37;98239.17;105180;1257;63831;-55
2023/12/24 01:19:08;;;;;;;4.30;1.40;;;;;;;13.64;31.36;98250.24;105118;1262;60853;-57
2023/12/24 01:21:36;;;;;;;7.90;1.90;;;;;;;13.62;31.38;98255.77;105347;1262;63771;-58
2023/12/24 01:24:05;;;;;;;3.60;1.20;;;;;;;13.56;31.38;98256.98;105305;1259;62096;-53
2023/12/24 01:26:34;;;;;;;5.90;1.60;;;;;;;13.53;31.44;98258.16;105262;1256;60480;-55
2023/12/24 01:29:03;;;;;;;6.50;2.80;;;;;;;13.48;31.58;98257.77;105307;1256;63662;-56
2023/12/24 01:31:30;;;;;;;4.60;1.00;;;;;;;13.43;31.65;98258.34;105292;1262;60478;-56
2023/12/24 01:33:58;;;;;;;4.10;1.00;;;;;;;13.42;31.71;98259.63;104953;1259;62518;-56
2023/12/24 01:36:26;;;;;;;2.90;0.90;;;;;;;13.42;31.67;98258.73;105444;1264;60617;-57
2023/12/24 01:38:53;;;;;;;3.80;1.50;;;;;;;13.38;31.71;98261.77;105109;1262;60517;-57
2023/12/24 01:41:21;;;;;;;4.60;1.60;;;;;;;13.38;31.68;98261.67;105099;1260;66529;-58
2023/12/24 01:43:49;;;;;;;4.20;1.20;;;;;;;13.37;31.80;98265.81;105093;1264;61376;-59
2023/12/24 01:46:24;;;;;;;7.40;1.80;;;;;;;13.38;31.80;98268.50;105006;1259;63740;-55
2023/12/24 01:48:51;;;;;;;7.00;2.10;;;;;;;13.44;31.83;98267.53;105584;1256;60986;-57
2023/12/24 01:51:19;;;;;;;5.90;1.90;;;;;;;13.50;31.73;98275.98;105056;1262;60839;-56
2023/12/24 01:53:50;;;;;;;5.90;1.60;;;;;;;13.53;31.59;98276.32;105544;1260;64896;-55
2023/12/24 01:56:19;;;;;;;5.20;2.20;;;;;;;13.52;31.54;98277.98;105043;1259;60397;-56
2023/12/24 01:58:47;;;;;;;7.90;2.30;;;;;;;13.53;31.63;98281.70;104993;1261;63738;-56
2023/12/24 02:01:15;;;;;;;6.60;2.00;;;;;;;13.52;31.67;98280.88;104983;1260;60443;-56
2023/12/24 02:03:43;;;;;;;7.60;2.30;;;;;;;13.50;31.60;98283.75;105093;1259;59656;-58
2023/12/24 02:06:11;;;;;;;7.30;2.80;;;;;;;13.45;31.70;98288.19;105073;1262;65023;-55
2023/12/24 02:08:39;;;;;;;6.30;2.50;;;;;;;13.42;31.70;98290.56;105006;1258;61431;-56
2023/12/24 02:11:07;;;;;;;5.20;1.70;;;;;;;13.39;31.77;98291.95;104870;1257;62552;-56
2023/12/24 02:13:34;;;;;;;5.50;1.50;;;;;;;13.39;31.71;98286.02;105163;1263;60508;-56
2023/12/24 02:16:03;;;;;;;3.80;1.40;;;;;;;13.38;31.76;98293.34;104829;1256;60487;-58
2023/12/24 02:18:30;;;;;;;5.80;1.80;;;;;;;13.36;31.72;98295.39;105423;1259;64968;-56
2023/12/24 02:21:05;;;;;;;3.70;1.60;;;;;;;13.34;31.80;98301.95;104887;1263;60456;-56
2023/12/24 02:23:32;;;;;;;4.70;1.50;;;;;;;13.34;31.80;98301.43;105327;1259;63800;-57
2023/12/24 02:26:03;;;;;;;4.70;1.20;;;;;;;13.36;31.82;98303.77;104872;1257;60906;-57
2023/12/24 02:28:32;;;;;;;3.20;0.70;;;;;;;13.42;31.67;98313.41;105277;1264;60510;-58
2023/12/24 02:31:01;;;;;;;6.20;2.20;;;;;;;13.41;31.59;98312.11;105343;1259;64905;-58
2023/12/24 02:33:30;;;;;;;4.20;1.20;;;;;;;13.42;31.60;98305.55;105081;1258;61388;-56
2023/12/24 02:35:58;;;;;;;6.90;2.90;;;;;;;13.43;31.66;98303.68;104867;1263;63773;-55
2023/12/24 02:38:25;;;;;;;5.80;1.40;;;;;;;13.39;31.65;98312.36;105356;1257;60489;-56
2023/12/24 02:40:54;;;;;;;6.40;1.00;;;;;;;13.39;31.62;98316.11;105414;1263;60504;-57
2023/12/24 02:43:21;;;;;;;6.60;1.60;;;;;;;13.39;31.64;98327.06;105118;1257;64898;-60
2023/12/24 02:45:49;;;;;;;5.70;1.80;;;;;;;13.36;31.72;98328.06;105162;1260;61354;-56
2023/12/24 02:48:17;;;;;;;5.50;2.20;;;;;;;13.37;31.79;98326.16;105192;1262;64225;-57
2023/12/24 02:50:45;;;;;;;7.50;2.40;;;;;;;13.35;31.90;98333.17;105083;1260;60560;-57
2023/12/24 02:53:13;;;;;;;3.90;1.10;;;;;;;13.31;31.87;98337.27;105122;1262;60464;-57
2023/12/24 02:55:41;;;;;;;3.60;1.30;;;;;;;13.29;31.81;98337.44;105357;1258;63669;-56
2023/12/24 02:58:09;;;;;;;4.60;1.80;;;;;;;13.31;31.95;98341.24;105161;1257;60297;-56
2023/12/24 03:00:36;;;;;;;3.80;1.10;;;;;;;13.33;31.95;98343.23;104941;1263;62457;-55
2023/12/24 03:03:04;;;;;;;4.60;1.50;;;;;;;13.36;31.74;98345.55;104878;1264;60576;-54
2023/12/24 03:05:32;;;;;;;5.20;2.00;;;;;;;13.44;31.58;98346.00;105300;1263;60377;-55
2023/12/24 03:08:00;;;;;;;6.70;1.30;;;;;;;13.53;31.56;98346.45;105659;1257;74863;-55
2023/12/24 03:10:27;;;;;;;4.70;1.60;;;;;;;13.55;31.56;98353.17;105067;1257;61403;-58
2023/12/24 03:12:55;;;;;;;5.60;2.90;;;;;;;13.56;31.54;98357.85;105124;1261;71374;-55
2023/12/24 03:15:23;;;;;;;5.10;1.10;;;;;;;13.52;31.49;98363.75;105671;1257;60537;-55
2023/12/24 03:17:50;;;;;;;4.00;1.00;;;;;;;13.48;31.71;98365.50;105057;1258;60559;-56
2023/12/24 03:20:18;;;;;;;4.40;1.50;;;;;;;13.45;31.68;98377.74;105188;1261;65067;-55
2023/12/24 03:22:47;;;;;;;6.20;1.40;;;;;;;13.40;31.67;98375.73;105197;1258;61280;-56
2023/12/24 03:25:15;;;;;;;4.70;1.40;;;;;;;13.35;31.72;98377.11;105268;1260;62555;-55
2023/12/24 03:27:43;;;;;;;4.60;1.20;;;;;;;13.33;31.70;98379.61;105140;1258;60561;-56
2023/12/24 03:30:11;;;;;;;2.40;0.80;;;;;;;13.30;31.80;98383.58;105083;1258;60451;-54
2023/12/24 03:32:38;;;;;;;4.30;1.10;;;;;;;13.27;31.87;98388.50;105122;1257;65113;-56
2023/12/24 03:35:06;;;;;;;3.90;0.90;;;;;;;13.25;31.82;98388.97;105086;1258;61641;-56
2023/12/24 03:37:34;;;;;;;3.10;1.00;;;;;;;13.25;31.94;98392.61;105197;1257;63518;-57
2023/12/24 03:40:03;;;;;;;4.20;1.40;;;;;;;13.24;31.86;98390.42;105064;1261;60445;-57
2023/12/24 03:42:30;;;;;;;5.80;1.50;;;;;;;13.23;31.90;98393.10;105494;1256;60523;-58
2023/12/24 03:44:58;;;;;;;4.00;1.90;;;;;;;13.28;31.87;98399.80;105144;1256;73872;-58
2023/12/24 03:47:27;;;;;;;4.80;1.40;;;;;;;13.38;31.75;98393.37;105011;1257;60575;-58
2023/12/24 03:49:54;;;;;;;4.60;0.90;;;;;;;13.50;31.57;98395.40;105074;1261;63914;-57
2023/12/24 03:52:22;;;;;;;5.50;1.60;;;;;;;13.51;31.47;98394.00;105070;1262;60397;-56
2023/12/24 03:54:50;;;;;;;5.30;1.80;;;;;;;13.42;31.42;98393.90;105743;1258;60448;-57
2023/12/24 03:57:17;;;;;;;3.50;0.80;;;;;;;13.44;31.54;98391.20;105170;1258;65424;-57
2023/12/24 03:59:45;;;;;;;4.70;1.20;;;;;;;13.44;31.61;98398.97;104946;1257;61354;-57
2023/12/24 04:02:13;;;;;;;4.50;1.00;;;;;;;13.37;31.59;98401.77;105105;1259;63754;-56
2023/12/24 04:04:46;;;;;;;3.30;1.20;;;;;;;13.31;31.57;98398.46;105118;1260;60526;-55
2023/12/24 04:07:16;;;;;;;4.10;1.20;;;;;;;13.26;31.68;98403.97;105014;1259;60675;-58
2023/12/24 04:09:44;;;;;;;5.30;2.00;;;;;;;13.20;31.59;98406.15;104946;1264;65550;-58
2023/12/24 04:12:12;;;;;;;4.40;1.20;;;;;;;13.16;31.69;98406.27;105116;1258;62836;-58
2023/12/24 04:14:40;;;;;;;4.60;1.70;;;;;;;13.07;31.81;98406.66;105203;1259;63845;-56
2023/12/24 04:17:07;;;;;;;9.30;2.70;;;;;;;13.03;31.90;98407.08;105127;1257;60376;-57
2023/12/24 04:19:35;;;;;;;4.70;1.20;;;;;;;13.00;31.89;98402.50;105357;1258;60621;-57
2023/12/24 04:22:03;;;;;;;4.10;1.40;;;;;;;13.02;31.85;98406.23;105375;1257;64978;-58
2023/12/24 04:24:32;;;;;;;3.30;1.20;;;;;;;13.11;31.78;98409.80;105393;1262;60453;-57
2023/12/24 04:27:01;;;;;;;7.30;2.00;;;;;;;13.18;31.64;98416.04;105222;1263;62443;-58
2023/12/24 04:29:28;;;;;;;4.70;1.60;;;;;;;13.23;31.65;98413.13;105309;1257;61005;-56
2023/12/24 04:31:57;;;;;;;5.40;1.90;;;;;;;13.25;31.61;98416.08;104946;1258;61549;-58
2023/12/24 04:34:25;;;;;;;5.40;1.80;;;;;;;13.20;31.45;98421.09;104878;1259;63720;-58
2023/12/24 04:36:53;;;;;;;4.50;1.30;;;;;;;13.18;31.49;98417.07;104872;1258;61618;-61
2023/12/24 04:39:21;;;;;;;5.00;1.50;;;;;;;13.17;31.51;98425.95;106120;1256;62484;-59
2023/12/24 04:41:49;;;;;;;5.30;1.80;;;;;;;13.14;31.48;98426.48;105140;1257;60690;-57
2023/12/24 04:44:16;;;;;;;6.00;1.80;;;;;;;13.10;31.46;98425.06;105215;1256;60565;-61
2023/12/24 04:46:45;;;;;;;7.00;2.10;;;;;;;13.07;31.48;98430.23;105096;1256;64939;-60
2023/12/24 04:49:13;;;;;;;7.20;2.40;;;;;;;13.09;31.48;98430.82;104994;1262;60590;-57
2023/12/24 04:51:41;;;;;;;4.30;1.40;;;;;;;13.06;31.46;98440.17;104999;1264;71454;-58
2023/12/24 04:54:09;;;;;;;4.90;1.40;;;;;;;13.01;31.37;98437.92;105109;1259;60605;-59
2023/12/24 04:56:37;;;;;;;6.80;1.70;;;;;;;12.98;31.30;98443.57;105061;1262;60368;-57
2023/12/24 04:59:06;;;;;;;7.30;1.30;;;;;;;12.97;31.34;98444.77;105375;1259;65417;-59
2023/12/24 05:01:33;;;;;;;6.30;1.60;;;;;;;12.97;31.35;98442.95;105386;1257;61332;-57
2023/12/24 05:04:01;;;;;;;6.40;1.80;;;;;;;12.99;31.35;98446.08;105272;1261;63747;-58
2023/12/24 05:06:29;;;;;;;6.50;2.40;;;;;;;13.10;31.23;98448.13;105145;1261;60541;-57
2023/12/24 05:08:56;;;;;;;7.40;1.60;;;;;;;13.16;31.02;98448.15;105392;1259;60607;-56
2023/12/24 05:11:24;;;;;;;6.10;2.90;;;;;;;13.24;30.86;98454.55;104859;1264;64855;-58
2023/12/24 05:13:53;;;;;;;5.40;2.20;;;;;;;13.30;30.86;98460.83;105615;1262;60353;-59
2023/12/24 05:16:21;;;;;;;4.40;1.40;;;;;;;13.31;30.84;98466.70;105100;1257;63739;-57
2023/12/24 05:18:49;;;;;;;9.80;2.00;;;;;;;13.23;30.74;98471.52;105553;1259;60733;-59
2023/12/24 05:21:17;;;;;;;5.30;1.50;;;;;;;13.24;30.81;98466.04;105122;1261;60490;-59
2023/12/24 05:23:44;;;;;;;5.30;1.70;;;;;;;13.25;30.90;98466.73;105169;1259;64960;-57
2023/12/24 05:26:12;;;;;;;8.50;3.70;;;;;;;13.25;30.82;98465.12;105071;1257;63410;-52
2023/12/24 05:28:39;;;;;;;7.50;2.00;;;;;;;13.23;30.84;98468.63;105093;1258;62580;-58
2023/12/24 05:31:07;;;;;;;8.40;2.50;;;;;;;13.21;30.92;98472.31;105092;1257;60479;-58
2023/12/24 05:33:34;;;;;;;5.20;2.30;;;;;;;13.21;30.91;98472.55;105218;1258;60472;-58
2023/12/24 05:36:03;;;;;;;3.80;0.90;;;;;;;13.20;31.01;98480.88;105493;1259;65434;-58
2023/12/24 05:38:31;;;;;;;5.50;1.60;;;;;;;13.20;31.03;98483.67;105407;1258;61412;-59
2023/12/24 05:40:59;;;;;;;5.80;1.40;;;;;;;13.15;30.97;98485.77;105046;1259;63750;-57
2023/12/24 05:43:26;;;;;;;5.90;1.50;;;;;;;13.18;31.09;98490.60;105505;1257;60655;-58
2023/12/24 05:45:54;;;;;;;3.00;0.80;;;;;;;13.29;30.98;98492.70;105164;1260;60440;-59
2023/12/24 05:48:21;;;;;;;3.80;1.40;;;;;;;13.39;30.90;98493.66;105042;1264;65029;-57
2023/12/24 05:50:49;;;;;;;5.30;1.60;;;;;;;13.46;30.90;98501.45;104893;1259;61373;-54
2023/12/24 05:53:17;;;;;;;5.90;2.90;;;;;;;13.45;30.84;98509.09;105113;1258;62489;-57
2023/12/24 05:55:45;;;;;;;6.80;2.20;;;;;;;13.47;30.88;98506.73;105125;1258;60569;-58
2023/12/24 05:58:12;;;;;;;6.90;1.90;;;;;;;13.45;30.82;98508.84;105207;1260;60365;-57
2023/12/24 06:00:40;;;;;;;10.00;2.10;;;;;;;13.48;30.86;98512.78;105126;1258;65460;-56
2023/12/24 06:03:07;;;;;;;4.60;1.10;;;;;;;13.46;31.04;98516.17;105145;1256;61947;-57
2023/12/24 06:05:35;;;;;;;4.90;1.40;;;;;;;13.43;30.96;98520.84;105443;1259;62459;-57
2023/12/24 06:08:03;;;;;;;5.20;1.50;;;;;;;13.36;31.03;98525.98;105229;1256;60540;-56
2023/12/24 06:10:32;;;;;;;4.80;1.50;;;;;;;13.37;31.12;98520.95;105566;1256;60520;-59
2023/12/24 06:13:00;;;;;;;4.10;1.70;;;;;;;13.39;31.05;98522.55;105466;1262;64948;-60
2023/12/24 06:15:28;;;;;;;8.30;1.70;;;;;;;13.37;31.04;98526.66;105848;1259;61352;-59
2023/12/24 06:17:55;;;;;;;5.40;1.60;;;;;;;13.35;31.14;98533.77;105099;1261;62452;-54
2023/12/24 06:20:23;;;;;;;4.30;1.30;;;;;;;13.37;31.23;98539.67;105537;1257;61340;-57
2023/12/24 06:22:51;;;;;;;7.00;1.70;;;;;;;13.37;31.24;98546.54;105654;1258;60388;-56
2023/12/24 06:25:20;;;;;;;5.40;1.80;;;;;;;13.39;31.17;98543.04;108820;1256;65678;-56
2023/12/24 06:27:47;;;;;;;4.10;1.10;;;;;;;13.54;30.98;98541.16;108977;1256;61788;-56
2023/12/24 06:30:15;;;;;;;3.50;1.10;;;;;;;13.70;30.90;98545.52;108939;1256;62542;-58
2023/12/24 06:32:43;;;;;;;6.90;2.50;;;;;;;13.81;30.84;98545.02;108871;1256;58504;-58
2023/12/24 06:35:11;;;;;;;7.80;1.80;;;;;;;13.86;30.56;98547.55;108859;1256;58524;-57
2023/12/24 06:37:39;;;;;;;6.50;2.40;;;;;;;13.87;30.55;98552.76;108865;1257;65670;-57
2023/12/24 06:40:07;;;;;;;10.50;2.70;;;;;;;13.85;30.63;98553.52;106159;1257;62151;-59
2023/12/24 06:42:35;;;;;;;9.50;4.20;;;;;;;13.79;30.72;98554.51;105470;1257;62574;-57
2023/12/24 06:45:03;;;;;;;21.40;8.90;;;;;;;13.76;30.75;98555.38;105410;1261;61666;-56
2023/12/24 06:47:30;;;;;;;12.00;5.90;;;;;;;13.74;30.83;98558.61;105324;1256;60561;-57
2023/12/24 06:49:58;;;;;;;12.00;4.20;;;;;;;13.70;30.97;98560.04;105087;1256;64853;-57
2023/12/24 06:52:26;;;;;;;10.70;3.30;;;;;;;13.64;31.05;98562.46;105844;1259;60393;-57
2023/12/24 06:54:53;;;;;;;9.40;3.10;;;;;;;13.59;31.15;98559.52;105598;1259;63182;-57
2023/12/24 06:57:21;;;;;;;9.40;2.30;;;;;;;13.52;31.22;98563.42;105049;1259;60621;-55
2023/12/24 06:59:49;;;;;;;6.10;2.50;;;;;;;13.47;31.39;98566.16;105133;1256;60466;-56
2023/12/24 07:02:16;;;;;;;4.40;1.40;;;;;;;13.49;31.34;98567.77;105706;1256;63721;-56
2023/12/24 07:04:44;;;;;;;10.40;2.90;;;;;;;13.48;31.61;98570.50;105229;1256;62140;-57
2023/12/24 07:07:12;;;;;;;11.90;3.60;;;;;;;13.52;32.25;98569.60;105000;1259;62735;-55
2023/12/24 07:09:39;;;;;;;6.90;2.60;;;;;;;13.67;33.46;98575.86;105218;1256;60525;-56
2023/12/24 07:12:07;;;;;;;9.80;2.40;;;;;;;13.71;32.94;98580.86;105221;1260;60368;-55
2023/12/24 07:14:35;;;;;;;9.40;3.50;;;;;;;13.71;34.02;98588.18;105193;1258;65422;-54
2023/12/24 07:17:02;;;;;;;12.00;2.90;;;;;;;13.68;35.64;98592.14;105546;1259;60535;-54
2023/12/24 07:19:32;;;;;;;6.30;2.20;;;;;;;13.63;35.49;98587.65;105172;1257;70344;-56
2023/12/24 07:22:00;;;;;;;6.30;1.50;;;;;;;13.67;36.92;98591.35;105208;1256;60563;-54
2023/12/24 07:24:27;;;;;;;5.50;1.50;;;;;;;13.64;36.58;98595.60;105564;1260;60381;-57
2023/12/24 07:26:55;;;;;;;5.90;2.50;;;;;;;13.60;34.42;98594.13;105263;1255;63761;-58
2023/12/24 07:29:22;;;;;;;6.00;2.20;;;;;;;13.56;33.78;98597.58;105328;1256;61309;-56
2023/12/24 07:31:50;;;;;;;6.20;2.20;;;;;;;13.57;34.05;98601.16;105807;1256;62501;-56
2023/12/24 07:34:18;;;;;;;6.80;1.90;;;;;;;13.56;34.08;98605.67;105217;1258;60519;-57
2023/12/24 07:36:46;;;;;;;5.40;1.90;;;;;;;13.62;34.28;98607.48;105400;1257;60319;-55
2023/12/24 07:39:13;;;;;;;4.50;2.20;;;;;;;13.68;33.91;98608.81;105225;1255;63688;-56
2023/12/24 07:41:42;;;;;;;3.90;1.90;;;;;;;13.76;33.93;98613.17;105293;1254;61445;-55
2023/12/24 07:44:12;;;;;;;6.80;2.60;;;;;;;14.93;33.53;98620.69;105254;1256;64250;-57
2023/12/24 07:46:39;;;;;;;7.20;1.90;;;;;;;15.06;33.75;98620.38;105504;1258;60722;-58
2023/12/24 07:49:07;;;;;;;4.10;1.50;;;;;;;14.77;33.84;98619.96;105512;1255;60402;-57
2023/12/24 07:51:35;;;;;;;5.80;1.30;;;;;;;14.54;33.17;98620.04;105515;1254;63699;-57
2023/12/24 07:54:03;;;;;;;3.80;1.10;;;;;;;14.44;32.93;98624.89;105407;1254;61310;-58
2023/12/24 07:56:31;;;;;;;5.50;2.30;;;;;;;14.39;33.33;98626.55;105675;1254;64180;-57
2023/12/24 07:58:58;;;;;;;5.10;1.70;;;;;;;14.31;33.31;98626.56;105235;1254;60458;-56
2023/12/24 08:01:26;;;;;;;5.20;1.80;;;;;;;14.18;33.47;98641.71;105230;1254;60492;-55
2023/12/24 08:03:53;;;;;;;3.90;1.10;;;;;;;14.14;36.76;98642.86;105738;1258;65024;-57
2023/12/24 08:06:21;;;;;;;4.80;1.80;;;;;;;14.19;34.89;98643.71;105256;1255;61365;-58
2023/12/24 08:08:56;;;;;;;4.20;1.20;;;;;;;14.23;33.82;98644.40;105375;1256;63873;-58
2023/12/24 08:11:24;;;;;;;4.90;1.50;;;;;;;14.32;33.45;98648.48;105290;1258;60580;-59
2023/12/24 08:13:52;;;;;;;3.90;1.50;;;;;;;14.28;33.46;98657.23;105232;1255;60543;-59
2023/12/24 08:16:20;;;;;;;4.50;1.40;;;;;;;14.26;33.57;98657.98;105222;1260;64929;-58
2023/12/24 08:18:47;;;;;;;8.20;2.50;;;;;;;14.19;33.22;98661.65;105197;1256;62041;-57
2023/12/24 08:21:15;;;;;;;7.00;1.60;;;;;;;14.01;33.44;98658.66;105332;1256;63773;-57
2023/12/24 08:23:43;;;;;;;3.60;1.30;;;;;;;13.93;33.49;98665.41;105253;1258;60439;-57
2023/12/24 08:26:10;;;;;;;10.50;2.20;;;;;;;13.86;33.47;98662.85;105367;1254;60778;-57
2023/12/24 08:28:41;;;;;;;4.60;1.80;;;;;;;13.83;34.25;98664.98;105287;1258;64927;-59
2023/12/24 08:31:08;;;;;;;8.20;2.20;;;;;;;13.79;33.76;98667.58;105397;1255;61367;-58
2023/12/24 08:33:37;;;;;;;6.10;1.40;;;;;;;13.60;33.97;98675.48;105475;1254;63796;-58
2023/12/24 08:36:06;;;;;;;7.30;1.60;;;;;;;13.64;33.32;98670.45;105495;1258;60563;-57
2023/12/24 08:38:34;;;;;;;3.30;1.10;;;;;;;13.75;33.13;98667.84;105298;1256;60522;-59
2023/12/24 08:41:02;;;;;;;5.20;1.60;;;;;;;13.88;32.97;98669.44;105476;1255;64872;-58
2023/12/24 08:43:31;;;;;;;6.40;2.10;;;;;;;14.02;32.83;98669.91;105809;1254;61311;-59
2023/12/24 08:46:03;;;;;;;5.70;1.20;;;;;;;14.04;32.78;98670.54;105674;1256;62462;-59
2023/12/24 08:48:31;;;;;;;4.30;1.40;;;;;;;14.01;33.43;98672.20;105773;1254;60672;-56
2023/12/24 08:51:01;;;;;;;4.20;1.40;;;;;;;13.91;33.42;98679.05;105643;1255;60471;-60
2023/12/24 08:53:28;;;;;;;6.40;1.30;;;;;;;13.79;36.58;98681.89;105721;1256;64953;-58
2023/12/24 08:55:56;;;;;;;6.00;1.30;;;;;;;13.77;36.08;98682.61;105642;1257;60507;-56
2023/12/24 08:58:24;;;;;;;3.50;1.30;;;;;;;13.66;35.68;98690.48;105444;1254;62550;-58
2023/12/24 09:00:51;;;;;;;5.30;1.70;;;;;;;13.56;36.20;98693.23;105795;1256;61091;-56
2023/12/24 09:03:19;;;;;;;8.30;1.10;;;;;;;13.62;36.88;98694.28;105417;1256;60514;-57
2023/12/24 09:05:47;;;;;;;6.70;2.20;;;;;;;13.70;36.18;98694.27;105231;1256;63690;-58
2023/12/24 09:08:14;;;;;;;3.70;0.90;;;;;;;13.76;35.47;98692.61;105248;1256;61435;-57
2023/12/24 09:10:42;;;;;;;6.30;1.40;;;;;;;13.90;35.95;98689.02;105264;1257;62615;-57
2023/12/24 09:13:10;;;;;;;4.30;1.20;;;;;;;14.00;35.34;98697.05;106145;1258;60548;-60
2023/12/24 09:15:38;;;;;;;9.20;1.50;;;;;;;13.98;34.83;98688.73;105179;1255;306525;-59
2023/12/24 09:31:08;;;;;;;3.90;1.40;;;;;;;11.82;38.16;98703.80;102832;1285;604466;-59
2023/12/24 09:33:35;;;;;;;3.80;1.70;;;;;;;13.77;33.61;98714.01;104628;1267;104247;-58
2023/12/24 09:36:07;;;;;;;4.10;1.30;;;;;;;13.72;33.06;98722.48;104675;1266;59710;-59
2023/12/24 09:38:38;;;;;;;4.50;1.50;;;;;;;13.72;33.06;98709.34;104729;1265;62165;-56
2023/12/24 09:41:06;;;;;;;3.40;1.00;;;;;;;13.69;32.49;98711.77;104668;1268;61543;-57
2023/12/24 09:43:37;;;;;;;7.70;2.10;;;;;;;13.62;32.13;98709.42;104473;1266;63724;-58
2023/12/24 09:46:05;;;;;;;6.50;1.80;;;;;;;13.64;31.93;98708.42;104785;1271;59380;-56
2023/12/24 09:48:34;;;;;;;6.30;1.50;;;;;;;13.55;32.22;98720.73;104469;1270;59327;-60
2023/12/24 09:51:02;;;;;;;9.50;3.10;;;;;;;13.52;32.45;98717.33;104859;1264;63856;-58
2023/12/24 09:53:30;;;;;;;5.50;1.60;;;;;;;13.44;31.84;98716.56;104818;1265;61499;-58
2023/12/24 09:55:58;;;;;;;7.20;2.80;;;;;;;13.45;31.49;98714.83;104815;1268;62636;-59
2023/12/24 09:58:26;;;;;;;5.10;1.70;;;;;;;13.49;31.56;98719.73;104824;1265;59646;-58
2023/12/24 10:00:53;;;;;;;6.30;1.40;;;;;;;13.56;32.23;98720.02;105200;1269;59716;-57
2023/12/24 10:03:21;;;;;;;4.40;1.10;;;;;;;13.54;31.76;98723.21;104965;1265;64098;-58
2023/12/24 10:05:59;;;;;;;4.00;1.40;;;;;;;13.54;31.31;98718.66;104371;1266;60130;-57
2023/12/24 10:08:27;;;;;;;5.40;1.10;;;;;;;13.54;30.96;98713.79;104699;1268;62550;-58
2023/12/24 10:10:55;;;;;;;6.30;1.00;;;;;;;13.58;30.94;98710.86;104242;1266;59815;-59
2023/12/24 10:13:22;;;;;;;5.80;1.20;;;;;;;13.57;30.63;98710.60;104354;1266;59711;-59
2023/12/24 10:16:04;;;;;;;2.80;0.80;;;;;;;13.60;30.38;98721.83;104282;1270;66202;-58
2023/12/24 10:18:32;;;;;;;4.60;1.50;;;;;;;13.56;30.36;98719.73;104786;1266;60126;-56
2023/12/24 10:21:09;;;;;;;4.80;1.40;;;;;;;13.52;30.33;98713.96;104323;1268;66029;-60
2023/12/24 10:23:36;;;;;;;2.90;1.00;;;;;;;13.52;30.39;98709.59;104808;1268;59693;-57
2023/12/24 10:26:06;;;;;;;5.00;1.30;;;;;;;13.47;30.20;98719.83;104383;1266;59818;-57
2023/12/24 10:28:34;;;;;;;4.40;1.30;;;;;;;13.44;30.13;98726.24;104878;1265;64273;-58
2023/12/24 10:31:07;;;;;;;4.50;1.00;;;;;;;13.42;30.14;98716.98;104422;1268;61376;-57
2023/12/24 10:33:38;;;;;;;6.70;1.50;;;;;;;13.44;30.08;98714.27;108316;1266;63796;-57
2023/12/24 10:36:06;;;;;;;4.40;1.30;;;;;;;13.36;29.88;98718.11;105462;1266;59274;-57
2023/12/24 10:38:35;;;;;;;3.20;1.20;;;;;;;13.43;29.86;98716.48;107287;1268;59355;-60
2023/12/24 10:41:03;;;;;;;5.90;1.30;;;;;;;13.45;29.78;98715.86;105676;1265;64199;-57
2023/12/24 10:43:31;;;;;;;4.50;1.20;;;;;;;13.52;29.69;98715.24;105699;1268;61350;-59
2023/12/24 10:45:58;;;;;;;3.20;1.00;;;;;;;13.59;29.61;98725.92;104302;1265;63883;-58
2023/12/24 10:48:26;;;;;;;4.50;1.30;;;;;;;13.64;29.53;98723.88;104393;1267;59707;-61
2023/12/24 10:50:54;;;;;;;5.30;2.00;;;;;;;13.70;29.50;98727.57;104421;1267;59656;-59
2023/12/24 10:53:22;;;;;;;5.70;1.30;;;;;;;13.79;29.52;98727.82;105788;1268;64612;-61
2023/12/24 10:55:57;;;;;;;6.50;1.50;;;;;;;13.83;29.34;98729.65;104934;1266;61527;-59
2023/12/24 10:58:37;;;;;;;5.20;1.90;;;;;;;13.86;29.33;98737.38;105005;1269;62565;-57
2023/12/24 11:01:08;;;;;;;3.60;1.40;;;;;;;13.80;29.28;98739.57;104524;1266;59648;-58
2023/12/24 11:03:43;;;;;;;4.70;1.30;;;;;;;13.74;29.28;98735.75;104795;1266;60021;-58
2023/12/24 11:06:11;;;;;;;5.10;1.80;;;;;;;13.68;29.35;98742.73;104607;1267;64139;-59
2023/12/24 11:08:39;;;;;;;4.70;1.80;;;;;;;13.66;29.31;98746.42;104414;1268;61544;-57
2023/12/24 11:11:10;;;;;;;6.20;1.80;;;;;;;13.70;29.34;98750.63;104443;1267;62448;-58
2023/12/24 11:13:44;;;;;;;5.90;1.60;;;;;;;13.76;29.25;98753.98;104642;1270;60968;-58
2023/12/24 11:16:13;;;;;;;5.90;1.30;;;;;;;13.87;29.40;98756.46;104571;1266;59733;-57
2023/12/24 11:18:41;;;;;;;4.60;1.30;;;;;;;13.94;29.29;98755.62;104523;1266;64077;-59
2023/12/24 11:21:21;;;;;;;4.70;1.70;;;;;;;13.96;29.33;98757.42;104404;1271;61491;-58
2023/12/24 11:24:08;;;;;;;5.80;1.60;;;;;;;13.89;29.40;98758.80;105175;1266;63768;-57
2023/12/24 11:26:35;;;;;;;7.10;1.50;;;;;;;13.84;29.58;98764.23;104398;1268;59673;-57
2023/12/24 11:29:42;;;;;;;5.30;1.50;;;;;;;13.78;29.70;98771.89;104450;1266;59708;-58
2023/12/24 11:32:25;;;;;;;4.40;1.10;;;;;;;13.80;29.71;98771.42;104667;1267;62889;-57
2023/12/24 11:34:57;;;;;;;5.40;1.50;;;;;;;13.82;29.74;98776.65;104825;1271;61406;-57
2023/12/24 11:37:26;;;;;;;4.30;1.20;;;;;;;13.80;29.65;98780.25;104162;1271;62444;-57
2023/12/24 11:40:03;;;;;;;5.80;1.70;;;;;;;13.76;29.66;98783.08;108254;1267;57771;-59
2023/12/24 11:42:48;;;;;;;11.40;2.40;;;;;;;13.78;29.59;98785.63;104409;1266;59681;-58